Time;durP1;ratioP1;P1;durP2;ratioP2;P2;SDS_P1;SDS_P2;PMS_P1;PMS_P2;Temp;Humidity;BMP_temperature;BMP_pressure;BME280_temperature;BME280_humidity;BME280_pressure;Samples;Min_cycle;Max_cycle;Signal;HPM_P1;HPM_P2
2022/10/19 00:00:27;;;;;;;4.87;2.17;;;7.50;99.90;;;;;;5017942;28;20169;-80
2022/10/19 00:02:52;;;;;;;17.77;2.23;;;7.50;99.90;;;;;;4999887;28;20727;-79
2022/10/19 00:05:18;;;;;;;17.50;2.50;;;7.50;99.90;;;;;;5017157;28;20604;-79
2022/10/19 00:07:43;;;;;;;9.93;2.33;;;7.60;99.90;;;;;;5000101;28;20257;-80
2022/10/19 00:10:09;;;;;;;13.53;2.60;;;7.50;99.90;;;;;;5017870;28;20169;-79
2022/10/19 00:12:35;;;;;;;8.90;2.30;;;7.50;99.90;;;;;;5018024;28;20189;-79
2022/10/19 00:15:00;;;;;;;11.80;2.27;;;7.50;99.90;;;;;;5017699;28;20256;-79
2022/10/19 00:17:26;;;;;;;4.23;1.70;;;7.50;99.90;;;;;;5017790;28;20177;-79
2022/10/19 00:19:52;;;;;;;12.70;2.20;;;7.50;99.90;;;;;;4999555;28;20173;-79
2022/10/19 00:22:17;;;;;;;8.90;1.80;;;7.50;99.90;;;;;;4999293;28;20195;-79
2022/10/19 00:24:43;;;;;;;17.63;2.30;;;7.50;99.90;;;;;;4999684;28;20177;-79
2022/10/19 00:27:08;;;;;;;7.17;2.07;;;7.50;99.90;;;;;;5017500;28;20189;-79
2022/10/19 00:29:34;;;;;;;6.53;1.70;;;7.50;99.90;;;;;;5017646;28;20196;-79
2022/10/19 00:32:00;;;;;;;3.03;1.90;;;7.40;99.90;;;;;;5017369;28;20185;-79
2022/10/19 00:34:25;;;;;;;7.57;2.20;;;7.50;99.90;;;;;;5017167;28;20221;-79
2022/10/19 00:36:51;;;;;;;14.40;2.57;;;7.40;99.90;;;;;;4998928;28;20180;-79
2022/10/19 00:39:17;;;;;;;8.47;2.30;;;7.50;99.90;;;;;;4999617;28;20236;-79
2022/10/19 00:41:44;;;;;;;14.10;2.70;;;7.40;99.90;;;;;;4999549;28;20212;-79
2022/10/19 00:44:14;;;;;;;8.67;2.20;;;7.40;99.90;;;;;;5016829;28;20188;-79
2022/10/19 00:46:47;;;;;;;9.00;2.53;;;7.40;99.90;;;;;;4999675;28;20551;-79
2022/10/19 00:49:19;;;;;;;11.40;2.33;;;7.30;99.90;;;;;;5016985;28;20259;-78
2022/10/19 00:51:49;;;;;;;8.43;1.83;;;7.30;99.90;;;;;;5016821;28;20180;-79
2022/10/19 00:54:16;;;;;;;6.73;2.00;;;7.30;99.90;;;;;;5017332;28;20189;-79
2022/10/19 00:56:44;;;;;;;3.50;1.73;;;7.20;99.90;;;;;;4999261;28;20180;-79
2022/10/19 00:59:11;;;;;;;4.37;1.77;;;7.20;99.90;;;;;;5017343;28;20259;-79
2022/10/19 01:01:37;;;;;;;15.30;2.30;;;7.20;99.90;;;;;;5016859;28;20177;-80
2022/10/19 01:04:03;;;;;;;11.87;2.47;;;7.20;99.90;;;;;;5017557;28;20211;-79
2022/10/19 01:06:29;;;;;;;3.63;2.20;;;7.20;99.90;;;;;;4999997;28;20183;-79
2022/10/19 01:08:54;;;;;;;7.97;1.90;;;7.20;99.90;;;;;;4999642;28;20235;-79
2022/10/19 01:11:50;;;;;;;3.60;1.97;;;7.10;99.90;;;;;;4999808;28;20187;-79
2022/10/19 01:14:52;;;;;;;4.53;1.97;;;7.10;99.90;;;;;;5018025;28;20537;-79
2022/10/19 01:17:40;;;;;;;5.73;2.00;;;7.00;99.90;;;;;;5017870;28;20176;-79
2022/10/19 01:20:33;;;;;;;5.13;1.90;;;7.00;99.90;;;;;;5020201;28;20168;-79
2022/10/19 01:23:16;;;;;;;6.10;1.87;;;7.00;99.90;;;;;;5035699;28;20608;-79
2022/10/19 01:26:00;;;;;;;8.10;1.80;;;6.90;99.90;;;;;;5015558;28;20243;-80
2022/10/19 01:28:55;;;;;;;3.90;2.00;;;7.00;99.90;;;;;;5016278;28;20259;-79
2022/10/19 01:31:23;;;;;;;4.70;2.13;;;6.90;99.90;;;;;;4979255;28;20219;-79
2022/10/19 01:33:54;;;;;;;12.17;2.50;;;6.90;99.90;;;;;;5016441;28;20597;-79
2022/10/19 01:36:38;;;;;;;7.10;2.00;;;6.90;99.90;;;;;;4998690;28;20223;-79
2022/10/19 01:39:10;;;;;;;11.67;2.23;;;6.90;99.90;;;;;;5016215;28;20562;-79
2022/10/19 01:41:44;;;;;;;9.23;2.07;;;6.80;99.90;;;;;;4998239;28;20176;-79
2022/10/19 01:44:12;;;;;;;12.03;2.70;;;6.80;99.90;;;;;;5015905;28;20177;-79
2022/10/19 01:46:43;;;;;;;11.23;1.90;;;6.70;99.90;;;;;;4998355;28;20189;-79
2022/10/19 01:49:38;;;;;;;5.57;1.73;;;6.70;99.90;;;;;;4997576;28;20669;-79
2022/10/19 01:52:07;;;;;;;6.97;1.80;;;6.70;99.90;;;;;;5002549;28;20204;-79
2022/10/19 01:54:41;;;;;;;15.10;2.37;;;6.70;99.90;;;;;;5016152;28;20670;-79
2022/10/19 01:57:09;;;;;;;13.23;2.77;;;6.70;99.90;;;;;;4998538;28;20226;-79
2022/10/19 01:59:36;;;;;;;10.77;2.37;;;6.70;99.90;;;;;;4997816;28;20288;-80
2022/10/19 02:02:04;;;;;;;16.30;2.17;;;6.70;99.90;;;;;;5016004;28;20169;-79
2022/10/19 02:04:31;;;;;;;7.07;2.17;;;6.70;99.90;;;;;;4997709;28;20562;-79
2022/10/19 02:06:57;;;;;;;8.57;2.00;;;6.70;99.90;;;;;;4998364;28;20185;-79
2022/10/19 02:09:23;;;;;;;5.70;1.67;;;6.70;99.90;;;;;;5015986;28;20209;-79
2022/10/19 02:11:55;;;;;;;10.00;2.13;;;6.60;99.90;;;;;;5016067;28;20181;-78
2022/10/19 02:14:25;;;;;;;10.00;2.20;;;6.60;99.90;;;;;;5016325;28;20278;-79
2022/10/19 02:16:58;;;;;;;7.97;2.03;;;6.50;99.90;;;;;;5016258;28;20527;-79
2022/10/19 02:19:23;;;;;;;7.53;2.30;;;6.60;99.90;;;;;;5015919;28;20563;-79
2022/10/19 02:21:51;;;;;;;8.23;2.47;;;6.60;99.90;;;;;;5015672;28;20264;-79
2022/10/19 02:24:17;;;;;;;4.00;1.97;;;6.60;99.90;;;;;;5015838;28;20181;-79
2022/10/19 02:26:43;;;;;;;12.87;2.13;;;6.50;99.90;;;;;;5016921;28;20253;-79
2022/10/19 02:29:09;;;;;;;12.53;2.50;;;6.50;99.90;;;;;;5019106;28;20283;-79
2022/10/19 02:31:35;;;;;;;8.97;2.10;;;6.50;99.90;;;;;;5001086;28;20184;-79
2022/10/19 02:34:01;;;;;;;4.50;2.50;;;6.50;99.90;;;;;;5019329;28;20212;-79
2022/10/19 02:36:26;;;;;;;9.63;2.70;;;6.50;99.90;;;;;;5019280;28;20184;-79
2022/10/19 02:38:52;;;;;;;7.67;2.57;;;6.50;99.90;;;;;;5000810;28;20283;-79
2022/10/19 02:41:28;;;;;;;10.13;2.77;;;6.50;99.90;;;;;;5001115;28;20535;-79
2022/10/19 02:44:00;;;;;;;14.77;2.50;;;6.50;99.90;;;;;;5018853;28;20200;-79
2022/10/19 02:46:39;;;;;;;4.27;2.33;;;6.50;99.90;;;;;;5018880;28;20340;-79
2022/10/19 02:49:06;;;;;;;12.43;2.47;;;6.50;99.90;;;;;;5017436;28;20247;-78
2022/10/19 02:51:35;;;;;;;9.30;2.60;;;6.50;99.90;;;;;;5001626;28;20181;-79
2022/10/19 02:54:02;;;;;;;6.00;2.63;;;6.50;99.90;;;;;;5000818;28;20670;-79
2022/10/19 02:56:28;;;;;;;6.13;2.80;;;6.50;99.90;;;;;;5001168;28;20205;-78
2022/10/19 02:58:54;;;;;;;6.53;2.80;;;6.40;99.90;;;;;;5018167;28;20234;-79
2022/10/19 03:01:20;;;;;;;15.57;2.67;;;6.50;99.90;;;;;;5001346;28;20174;-79
2022/10/19 03:03:45;;;;;;;7.17;2.77;;;6.50;99.90;;;;;;5018884;28;20532;-79
2022/10/19 03:06:11;;;;;;;11.73;2.90;;;6.50;99.90;;;;;;5000678;28;20211;-78
2022/10/19 03:08:36;;;;;;;4.03;2.40;;;6.40;99.90;;;;;;5018818;28;20263;-79
2022/10/19 03:11:02;;;;;;;13.80;2.50;;;6.40;99.90;;;;;;5019030;28;20236;-78
2022/10/19 03:13:27;;;;;;;10.17;2.73;;;6.40;99.90;;;;;;5000102;28;20270;-79
2022/10/19 03:15:53;;;;;;;8.70;2.00;;;6.40;99.90;;;;;;5000641;28;20173;-79
2022/10/19 03:18:18;;;;;;;13.57;2.63;;;6.30;99.90;;;;;;5017868;28;20212;-79
2022/10/19 03:20:44;;;;;;;6.57;2.40;;;6.30;99.90;;;;;;5000510;28;20176;-79
2022/10/19 03:23:09;;;;;;;6.33;2.30;;;6.30;99.90;;;;;;5000424;28;20180;-79
2022/10/19 03:25:35;;;;;;;10.63;3.07;;;6.30;99.90;;;;;;5017253;28;20172;-80
2022/10/19 03:28:00;;;;;;;10.00;2.13;;;6.30;99.90;;;;;;5017650;28;20197;-79
2022/10/19 03:30:26;;;;;;;8.47;2.53;;;6.30;99.90;;;;;;5018067;28;20177;-79
2022/10/19 03:32:51;;;;;;;6.93;2.57;;;6.30;99.90;;;;;;5000267;28;20197;-79
2022/10/19 03:35:17;;;;;;;10.23;2.93;;;6.30;99.90;;;;;;5000566;28;20220;-78
2022/10/19 03:37:42;;;;;;;9.57;2.43;;;6.40;99.90;;;;;;5018091;28;20256;-79
2022/10/19 03:40:08;;;;;;;5.47;2.77;;;6.40;99.90;;;;;;5018064;28;20176;-78
2022/10/19 03:42:34;;;;;;;9.27;2.67;;;6.40;99.90;;;;;;5018184;28;20255;-79
2022/10/19 03:44:59;;;;;;;12.17;2.80;;;6.40;99.90;;;;;;5017677;28;20257;-79
2022/10/19 03:47:25;;;;;;;11.00;2.93;;;6.40;99.90;;;;;;4999915;28;20232;-78
2022/10/19 03:49:51;;;;;;;8.97;3.10;;;6.40;99.90;;;;;;5017372;28;20533;-79
2022/10/19 03:52:18;;;;;;;10.17;3.53;;;6.50;99.90;;;;;;5000021;28;20180;-79
2022/10/19 03:54:43;;;;;;;10.10;3.10;;;6.50;99.90;;;;;;5017082;28;20683;-79
2022/10/19 03:57:09;;;;;;;5.17;3.00;;;6.50;99.90;;;;;;5017691;28;20244;-79
2022/10/19 03:59:34;;;;;;;9.13;2.83;;;6.50;99.90;;;;;;4999526;28;20200;-80
2022/10/19 04:02:00;;;;;;;10.87;3.20;;;6.50;99.90;;;;;;5017323;28;20183;-79
2022/10/19 04:04:26;;;;;;;5.93;3.30;;;6.50;99.90;;;;;;4999631;28;20181;-79
2022/10/19 04:06:52;;;;;;;10.50;4.23;;;6.50;99.90;;;;;;4999772;28;20622;-79
2022/10/19 04:09:20;;;;;;;10.00;3.23;;;6.50;99.90;;;;;;5017161;28;20698;-79
2022/10/19 04:11:46;;;;;;;6.60;3.30;;;6.40;99.90;;;;;;4999400;28;20588;-79
2022/10/19 04:14:13;;;;;;;8.13;3.90;;;6.40;99.90;;;;;;4999235;28;20239;-78
2022/10/19 04:16:39;;;;;;;8.03;3.17;;;6.40;99.90;;;;;;5016770;28;20168;-79
2022/10/19 04:19:04;;;;;;;6.23;3.10;;;6.40;99.90;;;;;;4999109;28;20574;-79
2022/10/19 04:21:35;;;;;;;6.50;3.33;;;6.40;99.90;;;;;;4998854;28;20200;-78
2022/10/19 04:24:01;;;;;;;8.97;3.60;;;6.40;99.90;;;;;;4998922;28;20685;-79
2022/10/19 04:26:27;;;;;;;9.87;4.40;;;6.40;99.90;;;;;;5017401;28;20177;-79
2022/10/19 04:28:52;;;;;;;14.10;3.27;;;6.40;99.90;;;;;;5017325;28;20192;-79
2022/10/19 04:31:18;;;;;;;7.33;3.47;;;6.40;99.90;;;;;;4999392;28;20267;-79
2022/10/19 04:33:44;;;;;;;12.83;3.53;;;6.40;99.90;;;;;;5016601;28;20223;-79
2022/10/19 04:36:11;;;;;;;7.67;3.10;;;6.40;99.90;;;;;;4999956;28;20193;-78
2022/10/19 04:38:37;;;;;;;4.17;2.87;;;6.30;99.90;;;;;;5016286;28;20740;-78
2022/10/19 04:41:05;;;;;;;4.63;2.70;;;6.30;99.90;;;;;;5017335;28;20567;-78
2022/10/19 04:43:31;;;;;;;9.33;3.03;;;6.30;99.90;;;;;;5016880;28;20209;-79
2022/10/19 04:46:00;;;;;;;7.63;2.80;;;6.30;99.90;;;;;;4998971;28;20187;-80
2022/10/19 04:48:25;;;;;;;14.87;4.83;;;6.30;99.90;;;;;;5016537;28;20200;-81
2022/10/19 04:50:54;;;;;;;6.83;2.60;;;6.30;99.90;;;;;;4998539;28;20280;-81
2022/10/19 04:53:20;;;;;;;7.50;2.70;;;6.20;99.90;;;;;;5016789;28;20255;-81
2022/10/19 04:55:45;;;;;;;7.87;2.27;;;6.20;99.90;;;;;;4998556;28;20177;-81
2022/10/19 04:58:11;;;;;;;8.87;3.13;;;6.20;99.90;;;;;;5016502;28;20663;-80
2022/10/19 05:00:37;;;;;;;5.67;3.07;;;6.20;99.90;;;;;;5016185;28;20666;-80
2022/10/19 05:03:03;;;;;;;8.60;3.10;;;6.10;99.90;;;;;;4998547;28;20188;-80
2022/10/19 05:05:30;;;;;;;5.93;3.13;;;6.10;99.90;;;;;;4998904;28;20181;-79
2022/10/19 05:07:56;;;;;;;9.83;3.43;;;6.10;99.90;;;;;;5016323;28;20212;-79
2022/10/19 05:10:21;;;;;;;7.40;3.77;;;6.20;99.90;;;;;;5016777;28;20169;-79
2022/10/19 05:12:47;;;;;;;5.90;3.63;;;6.10;99.90;;;;;;5016390;28;20215;-79
2022/10/19 05:15:12;;;;;;;10.83;3.30;;;6.10;99.90;;;;;;5016481;28;20615;-79
2022/10/19 05:17:38;;;;;;;9.20;3.43;;;6.00;99.90;;;;;;4998183;28;20181;-79
2022/10/19 05:20:04;;;;;;;7.33;2.97;;;6.00;99.90;;;;;;5013079;28;20599;-79
2022/10/19 05:22:29;;;;;;;10.73;2.97;;;6.00;99.90;;;;;;5016202;28;20673;-80
2022/10/19 05:24:55;;;;;;;6.63;3.67;;;6.00;99.90;;;;;;4998070;28;20259;-80
2022/10/19 05:27:21;;;;;;;4.33;3.07;;;6.10;99.90;;;;;;5016280;28;20200;-80
2022/10/19 05:29:46;;;;;;;8.47;3.80;;;6.10;99.90;;;;;;5016332;28;20201;-79
2022/10/19 05:32:12;;;;;;;9.53;3.10;;;5.90;99.90;;;;;;4998433;28;20740;-80
2022/10/19 05:34:38;;;;;;;8.67;3.43;;;5.90;99.90;;;;;;4998080;28;20219;-79
2022/10/19 05:37:03;;;;;;;10.53;3.20;;;5.90;99.90;;;;;;4998930;28;20176;-80
2022/10/19 05:39:29;;;;;;;8.37;3.20;;;5.90;99.90;;;;;;4998512;28;20284;-80
2022/10/19 05:41:54;;;;;;;6.60;3.17;;;5.90;99.90;;;;;;4998894;28;20177;-80
2022/10/19 05:44:22;;;;;;;8.40;3.20;;;5.80;99.90;;;;;;5016394;28;20183;-80
2022/10/19 05:46:48;;;;;;;9.17;3.50;;;5.70;99.90;;;;;;5016576;28;20236;-80
2022/10/19 05:49:15;;;;;;;7.03;3.93;;;5.80;99.90;;;;;;5015827;28;20208;-80
2022/10/19 05:51:42;;;;;;;11.90;4.30;;;5.80;99.90;;;;;;5016822;28;20177;-80
2022/10/19 05:54:07;;;;;;;6.93;3.07;;;5.80;99.90;;;;;;5017220;28;20204;-79
2022/10/19 05:56:33;;;;;;;10.70;4.27;;;5.90;99.90;;;;;;5016439;28;20189;-80
2022/10/19 05:59:01;;;;;;;6.47;4.00;;;5.90;99.90;;;;;;4998711;28;20196;-80
2022/10/19 06:01:27;;;;;;;17.53;5.30;;;5.90;99.90;;;;;;5015090;28;20210;-79
2022/10/19 06:03:56;;;;;;;13.73;5.40;;;5.80;99.90;;;;;;5016858;28;20204;-78
2022/10/19 06:06:22;;;;;;;9.23;5.23;;;5.80;99.90;;;;;;5017144;28;20278;-78
2022/10/19 06:08:49;;;;;;;10.07;5.50;;;5.80;99.90;;;;;;5020256;28;20221;-78
2022/10/19 06:11:20;;;;;;;11.77;6.17;;;5.90;99.90;;;;;;5002446;28;20185;-78
2022/10/19 06:13:47;;;;;;;10.50;5.10;;;5.80;99.90;;;;;;5002057;28;20219;-80
2022/10/19 06:16:17;;;;;;;8.10;5.07;;;5.80;99.90;;;;;;5001963;28;20181;-78
2022/10/19 06:18:43;;;;;;;8.67;4.90;;;5.80;99.90;;;;;;5001849;28;20197;-78
2022/10/19 06:21:14;;;;;;;9.90;4.60;;;5.80;99.90;;;;;;5019877;28;20211;-78
2022/10/19 06:23:40;;;;;;;14.20;5.33;;;5.80;99.90;;;;;;5019652;28;20207;-78
2022/10/19 06:26:08;;;;;;;10.00;5.50;;;5.80;99.90;;;;;;5019237;28;20185;-78
2022/10/19 06:28:35;;;;;;;10.30;5.77;;;5.80;99.90;;;;;;5019472;28;20201;-78
2022/10/19 06:31:01;;;;;;;9.60;5.10;;;5.80;99.90;;;;;;5001607;28;20181;-79
2022/10/19 06:33:27;;;;;;;9.20;5.13;;;5.80;99.90;;;;;;5019899;28;20200;-79
2022/10/19 06:35:53;;;;;;;8.70;4.93;;;5.80;99.90;;;;;;5019474;28;20177;-78
2022/10/19 06:38:18;;;;;;;9.57;5.33;;;5.80;99.90;;;;;;5001410;28;20197;-79
2022/10/19 06:40:44;;;;;;;11.63;5.27;;;5.80;99.90;;;;;;5001729;28;20177;-79
2022/10/19 06:43:09;;;;;;;6.97;5.43;;;5.90;99.90;;;;;;5001251;28;20181;-78
2022/10/19 06:45:38;;;;;;;9.97;5.13;;;5.90;99.90;;;;;;5001253;28;20322;-78
2022/10/19 06:48:04;;;;;;;10.40;5.57;;;6.00;99.90;;;;;;5019322;28;20619;-78
2022/10/19 06:50:31;;;;;;;13.93;5.80;;;6.00;99.90;;;;;;5001876;28;20181;-78
2022/10/19 06:52:57;;;;;;;14.90;6.23;;;6.00;99.90;;;;;;5001209;28;20270;-78
2022/10/19 06:55:23;;;;;;;10.17;5.47;;;6.00;99.90;;;;;;5001304;28;20234;-78
2022/10/19 06:57:49;;;;;;;13.77;5.83;;;6.00;99.90;;;;;;5019393;28;20200;-78
2022/10/19 07:00:15;;;;;;;13.27;5.70;;;6.00;99.90;;;;;;5019076;28;20169;-78
2022/10/19 07:02:40;;;;;;;13.10;5.77;;;6.10;99.90;;;;;;5021595;28;20239;-78
2022/10/19 07:05:06;;;;;;;11.67;5.17;;;6.10;99.90;;;;;;5018959;28;20244;-78
2022/10/19 07:07:32;;;;;;;11.53;5.47;;;6.10;99.90;;;;;;5018840;28;20243;-78
2022/10/19 07:09:58;;;;;;;15.70;5.70;;;6.10;99.90;;;;;;5019223;28;20615;-78
2022/10/19 07:12:23;;;;;;;14.43;5.83;;;6.10;99.90;;;;;;5000550;28;20188;-78
2022/10/19 07:14:49;;;;;;;19.63;5.23;;;6.20;99.90;;;;;;5018713;28;20699;-78
2022/10/19 07:17:15;;;;;;;9.23;5.57;;;6.20;99.90;;;;;;5001170;28;20188;-78
2022/10/19 07:19:41;;;;;;;12.13;5.70;;;6.20;99.90;;;;;;5000854;28;20197;-78
2022/10/19 07:22:06;;;;;;;9.80;5.83;;;6.30;99.90;;;;;;5019165;28;20687;-78
2022/10/19 07:24:32;;;;;;;15.13;6.00;;;6.40;99.90;;;;;;5001654;28;20305;-78
2022/10/19 07:26:57;;;;;;;15.83;6.00;;;6.40;99.90;;;;;;5018851;28;20192;-78
2022/10/19 07:29:23;;;;;;;12.13;7.27;;;6.60;99.90;;;;;;5018447;28;20219;-78
2022/10/19 07:31:48;;;;;;;19.53;6.30;;;6.50;99.90;;;;;;5001302;28;20657;-78
2022/10/19 07:34:15;;;;;;;11.70;5.63;;;6.60;99.90;;;;;;5020714;28;20197;-78
2022/10/19 07:36:44;;;;;;;15.43;6.90;;;6.60;99.90;;;;;;5018412;28;20193;-77
2022/10/19 07:39:11;;;;;;;15.13;6.43;;;6.70;99.90;;;;;;5018408;28;20189;-78
2022/10/19 07:41:37;;;;;;;16.27;6.13;;;6.70;99.90;;;;;;5018918;28;20650;-78
2022/10/19 07:44:03;;;;;;;17.37;5.47;;;6.80;99.90;;;;;;5000850;28;20200;-78
2022/10/19 07:46:32;;;;;;;15.17;6.07;;;6.80;99.90;;;;;;5000994;28;20176;-78
2022/10/19 07:48:59;;;;;;;10.67;6.40;;;6.90;99.90;;;;;;5001706;28;20250;-79
2022/10/19 07:51:25;;;;;;;17.93;6.73;;;6.90;99.90;;;;;;5012280;28;20184;-79
2022/10/19 07:53:51;;;;;;;18.57;6.63;;;7.00;99.90;;;;;;5006386;28;20671;-79
2022/10/19 07:56:21;;;;;;;10.03;6.80;;;7.00;99.90;;;;;;5021928;28;20223;-79
2022/10/19 07:58:49;;;;;;;12.90;6.07;;;7.10;99.90;;;;;;5022183;28;20211;-79
2022/10/19 08:01:20;;;;;;;13.67;5.87;;;7.10;99.90;;;;;;5022232;28;20547;-79
2022/10/19 08:03:46;;;;;;;10.53;6.23;;;7.20;99.90;;;;;;5022672;28;20509;-78
2022/10/19 08:06:15;;;;;;;11.40;7.20;;;7.30;99.90;;;;;;5004875;28;20245;-79
2022/10/19 08:08:41;;;;;;;13.27;8.03;;;7.30;99.90;;;;;;5024073;28;20210;-79
2022/10/19 08:11:15;;;;;;;19.07;7.90;;;7.50;99.90;;;;;;5021830;28;20169;-79
2022/10/19 08:13:41;;;;;;;16.10;7.27;;;7.60;99.90;;;;;;5022586;28;20224;-78
2022/10/19 08:16:31;;;;;;;18.20;7.63;;;7.70;99.90;;;;;;5022540;28;20543;-79
2022/10/19 08:19:03;;;;;;;20.77;8.47;;;7.80;99.90;;;;;;5004691;28;20189;-79
2022/10/19 08:21:30;;;;;;;19.40;9.03;;;8.00;99.90;;;;;;5005778;28;20161;-78
2022/10/19 08:23:56;;;;;;;18.43;9.80;;;8.20;99.90;;;;;;5027041;28;20180;-78
2022/10/19 08:26:22;;;;;;;23.53;8.80;;;8.30;99.90;;;;;;5014463;28;20623;-79
2022/10/19 08:28:48;;;;;;;18.80;8.87;;;8.50;99.90;;;;;;5028956;28;20218;-79
2022/10/19 08:31:20;;;;;;;20.50;9.20;;;8.60;99.90;;;;;;5009770;28;20177;-79
2022/10/19 08:33:49;;;;;;;18.40;8.87;;;8.80;99.90;;;;;;5010305;28;20212;-79
2022/10/19 08:36:14;;;;;;;20.83;9.30;;;8.90;99.90;;;;;;5025019;28;20219;-79
2022/10/19 08:38:43;;;;;;;20.37;8.50;;;9.00;99.90;;;;;;5003973;28;20192;-78
2022/10/19 08:41:24;;;;;;;14.60;8.33;;;9.10;99.90;;;;;;5003125;28;20178;-79
2022/10/19 08:43:59;;;;;;;17.37;8.57;;;9.20;99.90;;;;;;5019984;28;20172;-79
2022/10/19 08:46:37;;;;;;;13.37;8.77;;;9.40;99.90;;;;;;5018756;28;20175;-79
2022/10/19 08:49:03;;;;;;;29.07;11.73;;;9.50;99.90;;;;;;5018782;28;20674;-79
2022/10/19 08:51:34;;;;;;;19.93;8.07;;;9.70;99.90;;;;;;5002897;28;20180;-79
2022/10/19 08:54:10;;;;;;;20.83;8.83;;;9.80;99.90;;;;;;5002048;28;20200;-79
2022/10/19 08:56:43;;;;;;;16.47;8.03;;;9.80;99.90;;;;;;5019479;28;20149;-79
2022/10/19 08:59:21;;;;;;;20.87;7.77;;;9.90;99.90;;;;;;5019670;28;20655;-79
2022/10/19 09:01:56;;;;;;;18.10;7.73;;;10.00;99.90;;;;;;5020285;28;20157;-79
2022/10/19 09:04:31;;;;;;;16.37;7.07;;;10.00;99.90;;;;;;5022970;28;20505;-79
2022/10/19 09:07:11;;;;;;;14.13;6.50;;;10.10;99.90;;;;;;5024017;28;20207;-79
2022/10/19 09:09:44;;;;;;;22.97;7.47;;;10.20;99.90;;;;;;5007247;28;20219;-79
2022/10/19 09:12:16;;;;;;;17.73;6.20;;;10.20;99.90;;;;;;5024665;28;20161;-79
2022/10/19 09:14:54;;;;;;;20.97;7.07;;;10.30;99.90;;;;;;5025026;28;20323;-79
2022/10/19 09:17:20;;;;;;;14.37;5.97;;;10.30;99.90;;;;;;5008044;28;20623;-79
2022/10/19 09:19:45;;;;;;;15.20;5.77;;;10.40;99.90;;;;;;5023592;28;20200;-80
2022/10/19 09:22:31;;;;;;;11.67;5.00;;;10.50;99.90;;;;;;5023589;28;20192;-80
2022/10/19 09:25:07;;;;;;;15.23;5.07;;;10.60;99.90;;;;;;5023649;28;20160;-79
2022/10/19 09:27:38;;;;;;;11.47;4.57;;;10.60;99.90;;;;;;5024716;28;20160;-80
2022/10/19 09:30:13;;;;;;;16.33;4.20;;;10.70;99.90;;;;;;5025138;28;20241;-80
2022/10/19 09:32:39;;;;;;;14.73;4.13;;;10.80;99.90;;;;;;5024015;28;20594;-80
2022/10/19 09:35:13;;;;;;;13.37;4.40;;;10.90;99.90;;;;;;5024702;28;20286;-80
2022/10/19 09:37:44;;;;;;;12.07;3.13;;;10.90;99.90;;;;;;5012906;28;20169;-80
2022/10/19 09:40:25;;;;;;;7.10;3.13;;;11.00;99.90;;;;;;5032524;28;20233;-80
2022/10/19 09:42:58;;;;;;;7.73;3.77;;;11.00;99.90;;;;;;5031789;28;20499;-80
2022/10/19 09:45:51;;;;;;;11.00;3.63;;;11.10;99.90;;;;;;5030324;28;20146;-79
2022/10/19 09:48:29;;;;;;;8.67;2.80;;;11.20;99.90;;;;;;5030433;28;20263;-80
2022/10/19 09:51:00;;;;;;;8.93;2.63;;;11.30;99.90;;;;;;5025738;28;20157;-80
2022/10/19 09:53:27;;;;;;;6.00;2.53;;;11.40;99.90;;;;;;5007499;28;20196;-80
2022/10/19 09:56:05;;;;;;;5.67;2.60;;;11.50;99.90;;;;;;5010917;28;20168;-80
2022/10/19 09:58:31;;;;;;;4.60;2.33;;;11.60;99.90;;;;;;5010152;28;20283;-79
2022/10/19 10:00:57;;;;;;;7.27;2.20;;;11.60;99.90;;;;;;5010218;28;20196;-80
2022/10/19 10:03:34;;;;;;;5.87;2.17;;;11.70;99.90;;;;;;5029817;28;20177;-80
2022/10/19 10:06:13;;;;;;;6.57;1.90;;;11.70;99.90;;;;;;5029345;28;20200;-80
2022/10/19 10:08:48;;;;;;;3.23;2.03;;;11.80;99.90;;;;;;5028920;28;20204;-80
2022/10/19 10:11:22;;;;;;;5.10;2.00;;;11.90;99.90;;;;;;5030555;28;20227;-80
2022/10/19 10:13:51;;;;;;;7.90;2.43;;;11.90;99.90;;;;;;5029161;28;20264;-80
2022/10/19 10:16:20;;;;;;;5.00;1.90;;;11.90;99.90;;;;;;5011745;28;20169;-80
2022/10/19 10:18:52;;;;;;;9.67;2.10;;;12.20;99.90;;;;;;5029353;28;20193;-80
2022/10/19 10:21:30;;;;;;;8.33;2.30;;;12.10;99.90;;;;;;5029008;28;20177;-80
2022/10/19 10:24:00;;;;;;;11.43;2.23;;;12.20;99.90;;;;;;5028404;28;20160;-80
2022/10/19 10:26:27;;;;;;;9.23;2.00;;;12.20;99.90;;;;;;5028759;28;20181;-80
2022/10/19 10:28:52;;;;;;;4.83;1.80;;;12.30;99.90;;;;;;5027904;28;20259;-80
2022/10/19 10:31:23;;;;;;;13.83;1.87;;;12.40;99.90;;;;;;5010008;28;20189;-80
2022/10/19 10:34:00;;;;;;;5.67;1.50;;;12.50;99.90;;;;;;5009974;28;20196;-80
2022/10/19 10:36:27;;;;;;;8.93;2.43;;;12.50;99.90;;;;;;5010391;28;20164;-80
2022/10/19 10:39:03;;;;;;;6.40;1.60;;;12.60;99.90;;;;;;5028480;28;20204;-80
2022/10/19 10:41:35;;;;;;;3.93;1.50;;;12.70;99.90;;;;;;5012446;28;20565;-80
2022/10/19 10:44:07;;;;;;;6.30;1.90;;;12.80;99.90;;;;;;5011764;28;20169;-81
2022/10/19 10:46:35;;;;;;;4.40;1.60;;;12.80;99.90;;;;;;5031931;28;20219;-80
2022/10/19 10:49:04;;;;;;;4.87;1.50;;;12.90;99.90;;;;;;5028786;28;20204;-80
2022/10/19 10:51:47;;;;;;;7.07;2.03;;;13.00;99.90;;;;;;5033803;28;20176;-80
2022/10/19 10:54:29;;;;;;;5.80;1.70;;;13.00;99.90;;;;;;5032903;28;20212;-80
2022/10/19 10:57:18;;;;;;;5.20;1.87;;;13.10;99.90;;;;;;5010502;28;20181;-80
2022/10/19 11:00:02;;;;;;;3.77;1.17;;;13.20;99.90;;;;;;5030024;28;20185;-80
2022/10/19 11:02:53;;;;;;;5.13;1.27;;;13.30;99.90;;;;;;5013004;28;20169;-80
2022/10/19 11:05:26;;;;;;;5.70;1.73;;;13.40;99.90;;;;;;5005741;28;20192;-80
2022/10/19 11:08:18;;;;;;;4.90;1.30;;;13.40;99.90;;;;;;5009678;28;20232;-80
2022/10/19 11:11:00;;;;;;;6.27;1.50;;;13.50;99.90;;;;;;5011278;28;20186;-80
2022/10/19 11:13:46;;;;;;;5.47;1.10;;;13.60;99.90;;;;;;5009966;28;20204;-80
2022/10/19 11:16:17;;;;;;;7.57;1.50;;;13.60;99.90;;;;;;5005511;28;20181;-80
2022/10/19 11:18:55;;;;;;;4.80;1.30;;;13.60;99.90;;;;;;5011824;28;20253;-80
2022/10/19 11:21:41;;;;;;;5.07;1.23;;;13.60;99.90;;;;;;5012307;28;20172;-80
2022/10/19 11:24:21;;;;;;;5.33;1.20;;;13.60;99.90;;;;;;5028455;28;20154;-80
2022/10/19 11:26:59;;;;;;;5.40;1.13;;;13.70;99.90;;;;;;5028197;28;20184;-80
2022/10/19 11:29:30;;;;;;;7.07;1.20;;;13.70;99.90;;;;;;5029082;28;20189;-80
2022/10/19 11:31:56;;;;;;;5.07;1.00;;;13.80;99.90;;;;;;5011721;28;20188;-80
2022/10/19 11:34:38;;;;;;;6.27;1.37;;;13.90;99.90;;;;;;5026660;28;20212;-81
2022/10/19 11:37:16;;;;;;;5.53;1.50;;;14.00;99.90;;;;;;5010888;28;20185;-80
2022/10/19 11:40:12;;;;;;;8.03;1.60;;;14.00;99.90;;;;;;5029326;28;20193;-80
2022/10/19 11:43:15;;;;;;;4.33;1.40;;;14.10;99.90;;;;;;5009522;28;20173;-80
2022/10/19 11:45:51;;;;;;;5.17;1.03;;;14.10;99.90;;;;;;5009214;28;20189;-80
2022/10/19 11:48:51;;;;;;;2.97;1.13;;;14.10;99.90;;;;;;5008773;28;20261;-80
2022/10/19 11:51:29;;;;;;;7.10;1.33;;;14.20;99.90;;;;;;5016877;28;20192;-81
2022/10/19 11:54:20;;;;;;;3.37;1.30;;;14.20;99.90;;;;;;5010027;28;20207;-81
2022/10/19 11:56:49;;;;;;;6.63;1.30;;;14.30;99.90;;;;;;4970516;28;20185;-80
2022/10/19 11:59:26;;;;;;;5.27;1.70;;;14.30;99.90;;;;;;5009603;28;20224;-80
2022/10/19 12:02:10;;;;;;;3.10;1.40;;;14.30;99.90;;;;;;5008083;28;20189;-80
2022/10/19 12:04:48;;;;;;;3.10;1.30;;;14.40;99.90;;;;;;5028910;28;20639;-81
2022/10/19 12:07:55;;;;;;;3.00;1.07;;;14.40;1.00;;;;;;5020654;28;20182;-80
2022/10/19 12:10:35;;;;;;;6.30;1.50;;;14.40;1.00;;;;;;4968000;28;20310;-80
2022/10/19 12:13:08;;;;;;;5.73;1.67;;;14.40;99.90;;;;;;5021504;28;20556;-80
2022/10/19 12:15:43;;;;;;;4.20;1.50;;;14.50;1.00;;;;;;5010380;28;20185;-80
2022/10/19 12:18:27;;;;;;;4.80;1.33;;;14.50;99.90;;;;;;5010819;28;20203;-80
2022/10/19 12:20:56;;;;;;;5.67;1.70;;;14.60;1.00;;;;;;5028819;28;20169;-81
2022/10/19 12:23:32;;;;;;;8.37;1.50;;;14.50;1.00;;;;;;5028925;28;20178;-80
2022/10/19 12:26:01;;;;;;;4.50;1.20;;;14.60;99.90;;;;;;5028314;28;20240;-81
2022/10/19 12:28:32;;;;;;;10.43;1.70;;;14.50;99.90;;;;;;5027956;28;20200;-81
2022/10/19 12:31:00;;;;;;;5.73;1.40;;;14.60;1.00;;;;;;5028206;28;20233;-81
2022/10/19 12:33:56;;;;;;;9.13;1.30;;;14.70;99.90;;;;;;5026715;28;20309;-81
2022/10/19 12:36:32;;;;;;;6.13;1.50;;;14.70;3.60;;;;;;5010040;28;20170;-81
2022/10/19 12:39:09;;;;;;;6.87;1.50;;;14.70;99.90;;;;;;5027878;28;20279;-81
2022/10/19 12:41:51;;;;;;;4.50;1.50;;;14.80;1.00;;;;;;5009242;28;20276;-81
2022/10/19 12:44:44;;;;;;;6.70;1.30;;;14.90;99.90;;;;;;5009516;28;20184;-81
2022/10/19 12:47:14;;;;;;;15.17;2.13;;;15.00;99.90;;;;;;5024262;28;20631;-80
2022/10/19 12:49:48;;;;;;;4.87;1.33;;;15.00;10.30;;;;;;5023393;28;20200;-81
2022/10/19 12:52:32;;;;;;;5.40;1.47;;;15.00;1.00;;;;;;5007669;28;20203;-80
2022/10/19 12:55:23;;;;;;;4.20;1.60;;;15.00;1.00;;;;;;5025844;28;20188;-80
2022/10/19 12:57:58;;;;;;;4.20;1.50;;;15.00;1.00;;;;;;5006903;28;20570;-81
2022/10/19 13:00:27;;;;;;;9.20;1.47;;;15.00;1.00;;;;;;5024926;28;20296;-78
2022/10/19 13:03:03;;;;;;;6.73;1.50;;;15.00;99.90;;;;;;5027957;28;20181;-81
2022/10/19 13:05:31;;;;;;;3.50;1.37;;;15.10;1.00;;;;;;5029100;28;20181;-81
2022/10/19 13:08:00;;;;;;;7.63;2.23;;;15.10;99.90;;;;;;5013065;28;20245;-81